createdAt,value
2022-09-16T00:01:13.499Z,18704.31
2022-09-16T00:03:41.642Z,18690.09
2022-09-16T00:06:20.504Z,18686.03
2022-09-16T00:08:49.759Z,18720.59
2022-09-16T00:11:19.382Z,18688.06
2022-09-16T00:13:47.507Z,18694.16
2022-09-16T00:16:20.954Z,18730.75
2022-09-16T00:18:49.625Z,18692.13
2022-09-16T00:21:18.995Z,18671.81
2022-09-16T00:23:47.049Z,18675.88
2022-09-16T00:26:15.231Z,18700.25
2022-09-16T00:28:43.282Z,18673.84
2022-09-16T00:31:11.823Z,18675.88
2022-09-16T00:33:39.885Z,18671.81
2022-09-16T00:36:11.503Z,18700.25
2022-09-16T00:38:41.566Z,18712.47
2022-09-16T00:41:15.431Z,18720.59
2022-09-16T00:43:53.790Z,18724.66
2022-09-16T00:46:30.202Z,18702.28
2022-09-16T00:48:59.726Z,18673.84
2022-09-16T00:51:28.958Z,18669.78
2022-09-16T00:54:04.151Z,18671.81
2022-09-16T00:56:39.340Z,18684.00
2022-09-16T00:59:13.125Z,18702.28
2022-09-16T01:01:43.117Z,18686.03
2022-09-16T01:04:19.691Z,18700.25
2022-09-16T01:06:48.154Z,18661.66
2022-09-16T01:09:20.496Z,18681.97
2022-09-16T01:11:48.463Z,18655.56
2022-09-16T01:14:35.785Z,18663.69
2022-09-16T01:17:23.227Z,18671.81
2022-09-16T01:20:29.382Z,18700.25
2022-09-16T01:23:22.914Z,18714.50
2022-09-16T01:26:20.012Z,18724.66
2022-09-16T01:29:48.054Z,18702.28
2022-09-16T01:32:29.130Z,18700.25
2022-09-16T01:35:11.191Z,18653.53
2022-09-16T01:37:56.683Z,18673.84
2022-09-16T01:40:35.751Z,18651.50
2022-09-16T01:43:18.586Z,18655.56
2022-09-16T01:45:56.535Z,18681.97
2022-09-16T01:48:38.547Z,18661.66
2022-09-16T01:51:16.062Z,18661.66
2022-09-16T01:53:55.120Z,18649.47
2022-09-16T01:56:32.437Z,18645.41
2022-09-16T01:59:09.417Z,18621.03
2022-09-16T02:01:47.044Z,18655.56
2022-09-16T02:04:24.931Z,18661.66
2022-09-16T02:06:57.175Z,18606.81
2022-09-16T02:09:33.104Z,18639.31
2022-09-16T02:12:07.952Z,18649.47
2022-09-16T02:14:42.398Z,18623.06
2022-09-16T02:17:13.781Z,18657.59
2022-09-16T02:19:49.856Z,18625.09
2022-09-16T02:22:24.463Z,18614.94
2022-09-16T02:24:53.876Z,18588.53
2022-09-16T02:27:24.205Z,18610.88
2022-09-16T02:30:01.742Z,18629.16
2022-09-16T02:32:34.925Z,18608.84
2022-09-16T02:35:07.514Z,18619.00
2022-09-16T02:37:43.717Z,18598.69
2022-09-16T02:40:18.446Z,18586.50
2022-09-16T02:42:46.902Z,18590.56
2022-09-16T02:45:15.416Z,18598.69
2022-09-16T02:47:55.232Z,18592.59
2022-09-16T02:50:32.946Z,18623.06
2022-09-16T02:53:09.490Z,18594.63
2022-09-16T02:55:50.394Z,18619.00
2022-09-16T02:58:18.597Z,18619.00
2022-09-16T03:00:50.874Z,18598.69
2022-09-16T03:03:19.301Z,18631.19
2022-09-16T03:06:21.808Z,18637.28
2022-09-16T03:08:52.194Z,18639.31
2022-09-16T03:11:33.224Z,18643.38
2022-09-16T03:14:32.422Z,18631.19
2022-09-16T03:17:20.824Z,18627.13
2022-09-16T03:20:05.026Z,18592.59
2022-09-16T03:22:49.691Z,18623.06
2022-09-16T03:25:40.359Z,18594.63
2022-09-16T03:28:16.956Z,18598.69
2022-09-16T03:30:55.437Z,18633.22
2022-09-16T03:33:33.430Z,18610.88
2022-09-16T03:36:06.781Z,18594.63
2022-09-16T03:38:40.806Z,18566.16
2022-09-16T03:41:11.848Z,18574.28
2022-09-16T03:43:40.168Z,18574.28
2022-09-16T03:46:12.685Z,18578.38
2022-09-16T03:48:40.711Z,18570.22
2022-09-16T03:51:08.703Z,18606.81
2022-09-16T03:53:38.066Z,18566.16
2022-09-16T03:56:06.735Z,18612.91
2022-09-16T03:58:34.864Z,18594.63
2022-09-16T04:01:03.757Z,18574.28
2022-09-16T04:03:33.433Z,18610.88
2022-09-16T04:06:01.603Z,18566.16
2022-09-16T04:08:29.573Z,18588.53
2022-09-16T04:11:01.303Z,18598.69
2022-09-16T04:13:31.367Z,18564.13
2022-09-16T04:15:59.678Z,18523.50
2022-09-16T04:18:27.970Z,18549.91
2022-09-16T04:20:58.759Z,18558.03
2022-09-16T04:23:27.627Z,18545.84
2022-09-16T04:25:58.034Z,18566.16
2022-09-16T04:28:27.322Z,18521.47
2022-09-16T04:30:55.393Z,18521.47
2022-09-16T04:33:23.681Z,18564.13
2022-09-16T04:35:51.702Z,18545.84
2022-09-16T04:38:19.681Z,18558.03
2022-09-16T04:40:47.666Z,18553.97
2022-09-16T04:43:16.989Z,18580.41
2022-09-16T04:45:44.949Z,18582.44
2022-09-16T04:48:12.948Z,18633.22
2022-09-16T04:50:40.905Z,18594.63
2022-09-16T04:53:08.849Z,18619.00
2022-09-16T04:55:37.445Z,18598.69
2022-09-16T04:58:05.708Z,18606.81
2022-09-16T05:00:35.164Z,18631.19
2022-09-16T05:03:03.217Z,18594.63
2022-09-16T05:05:31.345Z,18633.22
2022-09-16T05:07:59.413Z,18606.81
2022-09-16T05:10:28.606Z,18614.94
2022-09-16T05:12:56.576Z,18610.88
2022-09-16T05:15:24.556Z,18582.44
2022-09-16T05:17:53.878Z,18651.50
2022-09-16T05:20:21.851Z,18590.56
2022-09-16T05:22:51.535Z,18655.56
2022-09-16T05:25:19.524Z,18619.00
2022-09-16T05:27:47.482Z,18653.53
2022-09-16T05:30:17.314Z,18649.47
2022-09-16T05:32:45.418Z,18639.31
2022-09-16T05:35:14.980Z,18694.16
2022-09-16T05:37:42.973Z,18663.69
2022-09-16T05:40:11.430Z,18679.94
2022-09-16T05:42:39.443Z,18724.66
2022-09-16T05:45:09.604Z,18761.22
2022-09-16T05:47:37.585Z,18797.78
2022-09-16T05:50:06.608Z,18773.41
2022-09-16T05:52:36.256Z,18799.81
2022-09-16T05:55:04.716Z,18850.63
2022-09-16T05:57:32.668Z,18915.63
2022-09-16T06:00:01.027Z,18931.91
2022-09-16T06:02:29.072Z,19015.19
2022-09-16T06:04:57.082Z,19068.03
2022-09-16T06:07:25.039Z,19126.97
2022-09-16T06:09:54.782Z,19106.66
2022-09-16T06:12:22.794Z,19074.13
2022-09-16T06:14:50.801Z,19086.31
2022-09-16T06:17:18.819Z,19171.66
2022-09-16T06:19:46.790Z,19118.84
2022-09-16T06:22:14.739Z,19114.78
2022-09-16T06:24:42.715Z,19167.59
2022-09-16T06:27:12.524Z,19151.34
2022-09-16T06:29:40.784Z,19165.56
2022-09-16T06:32:08.748Z,19155.41
2022-09-16T06:34:36.723Z,19145.25
2022-09-16T06:37:05.188Z,19131.03
2022-09-16T06:39:33.193Z,19169.63
2022-09-16T06:42:01.187Z,19153.38
2022-09-16T06:44:30.546Z,19179.78
2022-09-16T06:46:58.541Z,19240.75
2022-09-16T06:49:26.919Z,19391.13
2022-09-16T06:51:54.907Z,19446.00
2022-09-16T06:54:22.884Z,19468.34
2022-09-16T06:56:50.887Z,19500.88
2022-09-16T06:59:18.971Z,19523.22
2022-09-16T07:01:48.347Z,19557.78
2022-09-16T07:04:16.321Z,19588.25
2022-09-16T07:07:07.983Z,19604.50
2022-09-16T07:09:34.206Z,19620.78
2022-09-16T07:12:03.007Z,19657.34
2022-09-16T07:14:32.500Z,19681.75
2022-09-16T07:17:02.822Z,19679.72
2022-09-16T07:19:30.905Z,19689.88
2022-09-16T07:21:58.926Z,19647.19
2022-09-16T07:24:27.154Z,19643.13
2022-09-16T07:26:55.150Z,19716.28
2022-09-16T07:29:23.083Z,19732.53
2022-09-16T07:31:51.152Z,19732.53
2022-09-16T07:34:21.272Z,19793.50
2022-09-16T07:36:50.850Z,19850.41
2022-09-16T07:39:21.070Z,19870.75
2022-09-16T07:41:49.713Z,19882.94
2022-09-16T07:44:21.964Z,19992.69
2022-09-16T07:46:51.272Z,20045.53
2022-09-16T07:49:21.074Z,20061.78
2022-09-16T07:51:49.482Z,20021.16
2022-09-16T07:54:19.804Z,20008.94
2022-09-16T07:56:47.872Z,19980.50
2022-09-16T07:59:19.534Z,19998.78
2022-09-16T08:01:49.919Z,20015.03
2022-09-16T08:04:20.865Z,20078.06
2022-09-16T08:06:49.249Z,20053.66
2022-09-16T08:12:07.848Z,20149.19
2022-09-16T08:14:36.325Z,20159.34
2022-09-16T08:17:04.763Z,20082.13
2022-09-16T08:19:34.505Z,20055.69
2022-09-16T08:22:02.493Z,20078.06
2022-09-16T08:24:30.618Z,20102.44
2022-09-16T08:26:58.614Z,20143.09
2022-09-16T08:29:27.113Z,20126.84
2022-09-16T08:31:55.331Z,20098.38
2022-09-16T08:34:23.530Z,20047.56
2022-09-16T08:36:53.025Z,20100.41
2022-09-16T08:39:21.612Z,20208.13
2022-09-16T08:42:32.802Z,20285.38
2022-09-16T08:45:20.599Z,20315.88
2022-09-16T08:48:09.666Z,20313.84
2022-09-16T08:50:43.185Z,20299.59
2022-09-16T08:53:20.715Z,20340.25
2022-09-16T08:55:52.365Z,20342.28
2022-09-16T08:58:23.851Z,20376.84
2022-09-16T09:01:02.189Z,20478.47
2022-09-16T09:03:38.981Z,20523.19
2022-09-16T09:06:24.446Z,20506.94
2022-09-16T09:09:09.263Z,20460.19
2022-09-16T09:11:51.334Z,20452.06
2022-09-16T09:14:41.109Z,20429.69
2022-09-16T09:17:25.159Z,20413.44
2022-09-16T09:20:08.539Z,20391.06
2022-09-16T09:23:00.564Z,20423.59
2022-09-16T09:25:44.076Z,20437.81
2022-09-16T09:28:38.956Z,20382.94
2022-09-16T09:31:25.776Z,20212.19
2022-09-16T09:34:06.340Z,20171.56
2022-09-16T09:36:52.368Z,20173.59
2022-09-16T09:39:44.191Z,20313.84
2022-09-16T09:42:22.413Z,20384.97
2022-09-16T09:45:01.503Z,20468.31
2022-09-16T09:47:38.135Z,20423.59
2022-09-16T09:50:20.097Z,20433.75
2022-09-16T09:52:58.988Z,20389.03
2022-09-16T09:55:33.832Z,20378.88
2022-09-16T09:58:24.961Z,20360.59
2022-09-16T10:00:56.230Z,20462.22
2022-09-16T10:03:27.553Z,20492.72
2022-09-16T10:05:55.752Z,20535.41
2022-09-16T10:08:30.658Z,20592.31
2022-09-16T10:11:01.878Z,20580.13
2022-09-16T10:13:32.415Z,20576.03
2022-09-16T10:16:15.214Z,20675.66
2022-09-16T10:18:45.896Z,20712.25
2022-09-16T10:21:17.616Z,20752.91
2022-09-16T10:23:56.072Z,20675.66
2022-09-16T10:26:27.031Z,20671.59
2022-09-16T10:29:00.332Z,20728.50
2022-09-16T10:31:40.455Z,20744.78
2022-09-16T10:34:24.465Z,20807.78
2022-09-16T10:37:04.049Z,20793.56
2022-09-16T10:39:34.289Z,20919.59
2022-09-16T10:42:06.682Z,20846.41
2022-09-16T10:44:38.119Z,20874.88
2022-09-16T10:47:19.301Z,20966.34
2022-09-16T10:49:52.075Z,21041.56
2022-09-16T10:52:24.521Z,20984.66
2022-09-16T10:54:54.225Z,20944.00
2022-09-16T10:57:29.862Z,21017.19
2022-09-16T11:00:02.935Z,20970.41
2022-09-16T11:03:23.723Z,20996.84
2022-09-16T11:06:10.561Z,20972.47
2022-09-16T11:09:02.432Z,20960.25
2022-09-16T11:11:58.107Z,20885.03
2022-09-16T11:14:46.383Z,20891.13
2022-09-16T11:17:36.564Z,20840.31
2022-09-16T11:20:53.723Z,20927.72
2022-09-16T11:23:40.384Z,20935.88
2022-09-16T11:26:18.805Z,20878.94
2022-09-16T11:29:27.166Z,20933.81
2022-09-16T11:32:14.622Z,20899.28
2022-09-16T11:35:10.343Z,20858.59
2022-09-16T11:37:50.709Z,20923.66
2022-09-16T11:40:35.365Z,20876.91
2022-09-16T11:43:39.198Z,20891.13
2022-09-16T11:46:20.509Z,20840.31
2022-09-16T11:49:06.534Z,20746.81
2022-09-16T11:52:01.026Z,20759.00
2022-09-16T11:54:59.181Z,20698.00
2022-09-16T11:57:33.236Z,20736.63
2022-09-16T12:00:06.563Z,20756.97
2022-09-16T12:02:41.836Z,20793.56
2022-09-16T12:05:20.279Z,20809.81
2022-09-16T12:08:03.114Z,20899.28
2022-09-16T12:10:42.487Z,20864.72
2022-09-16T12:13:16.941Z,20840.31
2022-09-16T12:15:51.859Z,20807.78
2022-09-16T12:18:27.408Z,20754.94
2022-09-16T12:21:09.887Z,20767.13
2022-09-16T12:23:46.921Z,20708.19
2022-09-16T12:26:22.229Z,20722.41
2022-09-16T12:29:00.445Z,20689.88
2022-09-16T12:31:36.920Z,20724.44
2022-09-16T12:34:14.649Z,20718.34
2022-09-16T12:36:48.616Z,20767.13
2022-09-16T12:39:17.947Z,20759.00
2022-09-16T12:42:11.379Z,20742.75
2022-09-16T12:45:12.300Z,20742.75
2022-09-16T12:48:12.545Z,20767.13
2022-09-16T12:51:09.745Z,20734.59
2022-09-16T12:54:23.645Z,20791.53
2022-09-16T12:57:21.911Z,20748.84
2022-09-16T13:00:11.782Z,20765.09
2022-09-16T13:02:46.925Z,20761.03
2022-09-16T13:05:26.255Z,20795.59
2022-09-16T13:08:01.874Z,20789.50
2022-09-16T13:13:35.186Z,20779.31
2022-09-16T13:16:07.826Z,20834.22
2022-09-16T13:18:45.808Z,20866.75
2022-09-16T13:21:27.997Z,20876.91
2022-09-16T13:24:07.829Z,20931.78
2022-09-16T13:26:45.954Z,20946.03
2022-09-16T13:29:44.012Z,20958.22
2022-09-16T13:32:38.140Z,20923.66
2022-09-16T13:35:24.595Z,20972.47
2022-09-16T13:37:55.513Z,21009.03
2022-09-16T13:40:27.238Z,21007.00
2022-09-16T13:43:15.171Z,20998.88
2022-09-16T13:45:45.507Z,21027.34
2022-09-16T13:48:19.451Z,21051.75
2022-09-16T13:50:53.947Z,21039.53
2022-09-16T13:53:29.876Z,21080.19
2022-09-16T13:56:08.810Z,21163.56
2022-09-16T13:58:52.840Z,21216.41
2022-09-16T14:01:37.024Z,21210.31
2022-09-16T14:04:41.064Z,21183.88
2022-09-16T14:07:25.296Z,21122.91
2022-09-16T14:10:01.622Z,21082.25
2022-09-16T14:12:48.331Z,21049.72
2022-09-16T14:15:19.742Z,21021.25
2022-09-16T14:17:53.015Z,20931.78
2022-09-16T14:20:24.024Z,20899.28
2022-09-16T14:23:02.913Z,20848.44
2022-09-16T14:25:34.901Z,21013.13
2022-09-16T14:28:20.174Z,21053.78
2022-09-16T14:30:56.478Z,21098.50
2022-09-16T14:33:31.180Z,21051.75
2022-09-16T14:36:01.640Z,21019.22
2022-09-16T14:38:46.347Z,20923.66
2022-09-16T14:41:25.720Z,20911.47
2022-09-16T14:43:59.261Z,20864.72
2022-09-16T14:46:28.744Z,20911.47
2022-09-16T14:48:57.364Z,20895.19
2022-09-16T14:51:28.778Z,20915.53
2022-09-16T14:54:15.253Z,20834.22
2022-09-16T14:56:43.681Z,20807.78
2022-09-16T14:59:15.436Z,20850.47
2022-09-16T15:01:45.147Z,20891.13
2022-09-16T15:04:20.518Z,20807.78
2022-09-16T15:06:55.403Z,20789.50
2022-09-16T15:09:33.268Z,20805.75
2022-09-16T15:12:02.683Z,20811.84
2022-09-16T15:14:31.108Z,20781.38
2022-09-16T15:17:04.375Z,20779.31
2022-09-16T15:19:38.812Z,20779.31
2022-09-16T15:22:14.402Z,20769.16
2022-09-16T15:24:43.661Z,20736.63
2022-09-16T15:27:12.047Z,20716.31
2022-09-16T15:29:53.593Z,20683.78
2022-09-16T15:32:28.120Z,20712.25
2022-09-16T15:35:20.590Z,20744.78
2022-09-16T15:37:49.771Z,20769.16
2022-09-16T15:40:36.044Z,20714.28
2022-09-16T15:43:16.921Z,20693.94
2022-09-16T15:45:58.258Z,20716.31
2022-09-16T15:48:34.693Z,20716.31
2022-09-16T15:51:10.422Z,20710.22
2022-09-16T15:53:46.667Z,20720.38
2022-09-16T15:56:33.537Z,20752.91
2022-09-16T15:59:06.639Z,20754.94
2022-09-16T16:01:52.987Z,20761.03
2022-09-16T16:04:30.765Z,20763.06
2022-09-16T16:07:02.485Z,20759.00
2022-09-16T16:09:41.335Z,20728.50
2022-09-16T16:12:14.090Z,20744.78
2022-09-16T16:14:43.131Z,20716.31
2022-09-16T16:17:15.285Z,20712.25
2022-09-16T16:19:47.121Z,20706.16
2022-09-16T16:22:16.130Z,20687.84
2022-09-16T16:24:45.364Z,20637.03
2022-09-16T16:27:13.477Z,20718.34
2022-09-16T16:29:41.485Z,20677.69
2022-09-16T16:32:11.859Z,20659.38
2022-09-16T16:34:42.824Z,20649.22
2022-09-16T16:37:33.814Z,20590.28
2022-09-16T16:40:04.181Z,20622.81
2022-09-16T16:42:32.232Z,20612.63
2022-09-16T16:45:00.207Z,20594.34
2022-09-16T16:47:28.190Z,20612.63
2022-09-16T16:49:56.341Z,20645.16
2022-09-16T16:52:25.681Z,20608.56
2022-09-16T16:54:53.729Z,20639.06
2022-09-16T16:57:21.734Z,20604.50
2022-09-16T16:59:49.693Z,20541.50
2022-09-16T17:02:17.715Z,20571.97
2022-09-16T17:04:45.714Z,20525.22
2022-09-16T17:07:29.113Z,20569.94
2022-09-16T17:09:58.528Z,20545.56
2022-09-16T17:12:27.646Z,20529.28
2022-09-16T17:14:55.852Z,20608.56
2022-09-16T17:17:27.756Z,20614.66
2022-09-16T17:19:59.596Z,20608.56
2022-09-16T17:22:27.594Z,20600.44
2022-09-16T17:24:55.571Z,20602.47
2022-09-16T17:27:26.955Z,20586.22
2022-09-16T17:29:54.996Z,20610.59
2022-09-16T17:32:23.151Z,20630.94
2022-09-16T17:34:51.136Z,20592.31
2022-09-16T17:37:19.904Z,20527.25
2022-09-16T17:39:49.633Z,20604.50
2022-09-16T17:42:18.125Z,20582.16
2022-09-16T17:44:47.525Z,20547.59
2022-09-16T17:47:15.612Z,20527.25
2022-09-16T17:49:43.658Z,20447.97
2022-09-16T17:52:11.800Z,20456.13
2022-09-16T17:54:40.871Z,20454.09
2022-09-16T17:57:08.968Z,20437.81
2022-09-16T17:59:37.028Z,20452.06
2022-09-16T18:02:07.661Z,20411.41
2022-09-16T18:04:35.871Z,20447.97
2022-09-16T18:07:04.120Z,20419.53
2022-09-16T18:09:32.714Z,20447.97
2022-09-16T18:12:00.729Z,20435.78
2022-09-16T18:14:28.849Z,20443.91
2022-09-16T18:16:56.920Z,20378.88
2022-09-16T18:19:26.860Z,20391.06
2022-09-16T18:21:55.025Z,20411.41
2022-09-16T18:24:23.023Z,20342.28
2022-09-16T18:26:51.034Z,20358.56
2022-09-16T18:29:19.186Z,20382.94
2022-09-16T18:31:49.798Z,20374.81
2022-09-16T18:34:18.615Z,20348.38
2022-09-16T18:36:48.069Z,20315.88
2022-09-16T18:39:18.266Z,20342.28
2022-09-16T18:41:47.033Z,20368.72
2022-09-16T18:44:17.730Z,20281.31
2022-09-16T18:46:45.886Z,20305.69
2022-09-16T18:49:16.283Z,20277.25
2022-09-16T18:51:51.354Z,20279.28
2022-09-16T18:54:24.695Z,20291.47
2022-09-16T18:56:55.565Z,20342.28
2022-09-16T18:59:28.277Z,20301.63
2022-09-16T19:01:59.179Z,20277.25
2022-09-16T19:04:30.401Z,20295.53
2022-09-16T19:07:07.219Z,20305.69
2022-09-16T19:09:38.201Z,20307.72
2022-09-16T19:12:07.313Z,20295.53
2022-09-16T19:14:35.511Z,20277.25
2022-09-16T19:17:03.875Z,20277.25
2022-09-16T19:19:32.448Z,20273.19
2022-09-16T19:22:05.428Z,20260.97
2022-09-16T19:24:34.272Z,20299.59
2022-09-16T19:27:02.290Z,20287.41
2022-09-16T19:29:30.894Z,20297.56
2022-09-16T19:31:59.157Z,20269.13
2022-09-16T19:34:27.409Z,20338.22
2022-09-16T19:36:57.634Z,20350.41
2022-09-16T19:39:28.027Z,20326.03
2022-09-16T19:41:56.102Z,20326.03
2022-09-16T19:44:24.216Z,20289.44
2022-09-16T19:46:52.217Z,20303.66
2022-09-16T19:49:22.886Z,20260.97
2022-09-16T19:51:52.537Z,20269.13
2022-09-16T19:54:23.934Z,20275.22
2022-09-16T19:56:53.450Z,20269.13
2022-09-16T19:59:22.107Z,20200.00
2022-09-16T20:01:50.539Z,20226.44
2022-09-16T20:04:20.877Z,20202.03
2022-09-16T20:06:49.741Z,20212.19
2022-09-16T20:09:17.932Z,20175.63
2022-09-16T20:11:48.014Z,20202.03
2022-09-16T20:14:20.358Z,20230.50
2022-09-16T20:16:50.016Z,20208.13
2022-09-16T20:19:21.243Z,20226.44
2022-09-16T20:21:49.746Z,20181.72
2022-09-16T20:24:20.429Z,20181.72
2022-09-16T20:26:48.569Z,20163.41
2022-09-16T20:29:18.692Z,20177.66
2022-09-16T20:31:48.627Z,20189.84
2022-09-16T20:34:17.606Z,20130.91
2022-09-16T20:36:46.882Z,20139.03
2022-09-16T20:39:16.192Z,20102.44
2022-09-16T20:41:49.624Z,20080.09
2022-09-16T20:44:19.345Z,20130.91
2022-09-16T20:46:48.859Z,20118.69
2022-09-16T20:49:22.840Z,20110.56
2022-09-16T20:51:51.285Z,20055.69
2022-09-16T20:54:19.346Z,20094.31
2022-09-16T20:56:49.167Z,20071.97
2022-09-16T20:59:20.230Z,20078.06
2022-09-16T21:01:49.815Z,20094.31
2022-09-16T21:04:20.480Z,20134.97
2022-09-16T21:06:48.576Z,20141.06
2022-09-16T21:09:18.946Z,20100.41
2022-09-16T21:11:47.453Z,20086.19
2022-09-16T21:14:21.495Z,20118.69
2022-09-16T21:16:50.017Z,20167.47
2022-09-16T21:19:18.143Z,20126.84
2022-09-16T21:21:47.616Z,20149.19
2022-09-16T21:24:16.418Z,20098.38
2022-09-16T21:26:45.989Z,20116.66
2022-09-16T21:29:20.212Z,20139.03
2022-09-16T21:31:50.462Z,20149.19
2022-09-16T21:34:21.297Z,20078.06
2022-09-16T21:36:50.829Z,20063.81
2022-09-16T21:39:21.799Z,20053.66
2022-09-16T21:41:50.035Z,20045.53
2022-09-16T21:44:19.079Z,20059.75
2022-09-16T21:46:49.632Z,20098.38
2022-09-16T21:49:22.705Z,20112.59
2022-09-16T21:51:52.752Z,20114.63
2022-09-16T21:54:21.029Z,20110.56
2022-09-16T21:56:51.013Z,20094.31
2022-09-16T21:59:20.578Z,20086.19
2022-09-16T22:01:51.227Z,20094.31
2022-09-16T22:04:22.723Z,20159.34
2022-09-16T22:06:52.675Z,20137.00
2022-09-16T22:09:20.841Z,20134.97
2022-09-16T22:11:49.041Z,20100.41
2022-09-16T22:14:17.495Z,20134.97
2022-09-16T22:16:45.672Z,20159.34
2022-09-16T22:19:18.517Z,20141.06
2022-09-16T22:21:49.377Z,20118.69
2022-09-16T22:24:20.356Z,20169.53
2022-09-16T22:26:49.163Z,20094.31
2022-09-16T22:29:17.264Z,20108.53
2022-09-16T22:31:45.352Z,20122.78
2022-09-16T22:34:14.844Z,20096.34
2022-09-16T22:36:42.827Z,20071.97
2022-09-16T22:39:15.463Z,20090.25
2022-09-16T22:41:44.039Z,20112.59
2022-09-16T22:44:12.166Z,20173.59
2022-09-16T22:46:44.048Z,20106.50
2022-09-16T22:49:14.554Z,20084.16
2022-09-16T22:51:43.411Z,20114.63
2022-09-16T22:54:14.455Z,20130.91
2022-09-16T22:56:44.413Z,20096.34
2022-09-16T22:59:19.215Z,20071.97
2022-09-16T23:01:48.748Z,20074.00
2022-09-16T23:04:18.675Z,20065.84
2022-09-16T23:06:46.736Z,20059.75
2022-09-16T23:09:15.639Z,20057.72
2022-09-16T23:11:43.703Z,20057.72
2022-09-16T23:14:19.153Z,20047.56
2022-09-16T23:16:47.366Z,20031.31
2022-09-16T23:19:17.921Z,20013.00
2022-09-16T23:21:46.762Z,20000.81
2022-09-16T23:24:18.963Z,19996.75
2022-09-16T23:26:48.889Z,20015.03
2022-09-16T23:29:19.143Z,20031.31
2022-09-16T23:31:47.419Z,20008.94
2022-09-16T23:34:20.184Z,20017.09
2022-09-16T23:36:49.269Z,19970.34
2022-09-16T23:39:19.053Z,20019.13
2022-09-16T23:41:49.378Z,19992.69
2022-09-16T23:44:18.065Z,19990.66
2022-09-16T23:46:46.399Z,20041.47
2022-09-16T23:49:16.852Z,19956.09
2022-09-16T23:51:46.419Z,19943.91
2022-09-16T23:54:15.711Z,19919.53
2022-09-16T23:56:44.587Z,19935.78
2022-09-16T23:59:12.811Z,19937.81
